Overview Statistics Trail Chart Weather Telemetry Raw packets
 

This is the latest recevied weather packets stored in our database for station/object DN9CHO-13. If no packets are shown the sender has not sent any weather packets the latest 10 day(s).

<< 33 34 35 36 37 38 39 >>
Time Temp. Humidity Pressure Rain* Wind** Luminosity Snow
1788076592 19.44° C 73% 1014.4 hPa 0 mm - 11 W/m² -
1788075988 19.44° C 73% 1014.3 hPa 0 mm - 9 W/m² -
1788075324 19.44° C 73% 1014.3 hPa 0 mm - 10 W/m² -
1788074720 19.44° C 73% 1014.2 hPa 0 mm - 9 W/m² -
1788074117 20° C 72% 1014 hPa 0 mm - 11 W/m² -
1788073533 19.44° C 73% 1013.9 hPa 0 mm - 11 W/m² -
1788072929 19.44° C 73% 1013.8 hPa 0 mm - 12 W/m² -
1788072326 19.44° C 75% 1013.8 hPa 0 mm - 10 W/m² -
1788071722 18.89° C 75% 1013.7 hPa 0 mm - 7 W/m² -
1788071118 18.89° C 77% 1013.6 hPa 0 mm - 8 W/m² -
1788070535 18.33° C 78% 1013.5 hPa 0 mm - 6 W/m² -
1788069931 17.78° C 79% 1013.5 hPa 0 mm - 4 W/m² -
1788069328 17.22° C 83% 1013.3 hPa 0 mm - 3 W/m² -
1788068724 16.67° C 89% 1013.4 hPa 0 mm - 2 W/m² -
1788068120 16.11° C 91% 1013.3 hPa 0 mm - 2 W/m² -
1788067517 16.11° C 90% 1013.2 hPa 0 mm - 2 W/m² -
1788066933 16.11° C 92% 1013 hPa 0 mm - 1 W/m² -
1788066329 16.67° C 90% 1013 hPa 0 mm - 1 W/m² -
1788065726 16.67° C 89% 1012.9 hPa 0 mm - 0 W/m² -
1788065122 16.67° C 90% 1012.9 hPa 0 mm - 0 W/m² -
1788064518 16.67° C 89% 1012.7 hPa 0 mm - 0 W/m² -
1788063934 16.67° C 91% 1012.7 hPa 0 mm - 0 W/m² -
1788063331 16.67° C 90% 1012.7 hPa 0 mm - 0 W/m² -
1788062727 16.67° C 89% 1012.7 hPa 0 mm - 0 W/m² -
1788062123 16.67° C 88% 1012.7 hPa 0 mm - 0 W/m² -

* Rain latest hour (hover to see other rain measurements)
** Current wind speed in m/s (hover to see current wind gust speed)